createdAt,value
2022-10-02T00:00:14.634Z,3.10
2022-10-02T00:03:17.625Z,2.70
2022-10-02T00:06:14.904Z,2.77
2022-10-02T00:09:03.582Z,2.50
2022-10-02T00:11:52.297Z,2.53
2022-10-02T00:14:42.262Z,2.90
2022-10-02T00:17:33.376Z,2.47
2022-10-02T00:20:25.128Z,2.57
2022-10-02T00:23:10.538Z,2.90
2022-10-02T00:26:23.729Z,2.57
2022-10-02T00:29:25.667Z,2.72
2022-10-02T00:32:29.848Z,2.70
2022-10-02T00:35:34.896Z,2.70
2022-10-02T00:38:45.290Z,2.63
2022-10-02T00:41:36.635Z,2.77
2022-10-02T00:44:40.918Z,2.33
2022-10-02T00:47:31.877Z,2.35
2022-10-02T00:50:42.217Z,2.70
2022-10-02T00:54:05.066Z,2.33
2022-10-02T00:56:58.760Z,2.40
2022-10-02T01:03:18.350Z,2.25
2022-10-02T01:06:03.744Z,2.53
2022-10-02T01:08:49.569Z,2.43
2022-10-02T01:11:36.865Z,2.30
2022-10-02T01:14:32.743Z,2.40
2022-10-02T01:17:31.645Z,2.53
2022-10-02T01:20:30.053Z,2.30
2022-10-02T01:23:21.609Z,2.43
2022-10-02T01:26:07.216Z,2.27
2022-10-02T01:28:52.956Z,2.50
2022-10-02T01:31:38.431Z,2.53
2022-10-02T01:34:24.160Z,2.53
2022-10-02T01:37:09.832Z,2.80
2022-10-02T01:40:00.192Z,2.20
2022-10-02T01:42:45.538Z,2.33
2022-10-02T01:45:58.977Z,2.30
2022-10-02T01:49:05.834Z,2.13
2022-10-02T01:52:21.153Z,2.27
2022-10-02T01:55:25.757Z,2.50
2022-10-02T01:58:36.354Z,3.00
2022-10-02T02:01:25.221Z,2.47
2022-10-02T02:04:13.592Z,2.03
2022-10-02T02:07:25.940Z,2.33
2022-10-02T02:10:34.295Z,2.40
2022-10-02T02:13:31.007Z,2.27
2022-10-02T02:16:41.216Z,2.37
2022-10-02T02:19:56.781Z,2.23
2022-10-02T02:22:49.226Z,1.87
2022-10-02T02:25:39.885Z,2.47
2022-10-02T02:28:29.616Z,2.13
2022-10-02T02:31:19.904Z,2.03
2022-10-02T02:34:13.449Z,2.30
2022-10-02T02:37:05.991Z,2.07
2022-10-02T02:39:56.250Z,2.20
2022-10-02T02:42:53.763Z,2.00
2022-10-02T02:45:50.847Z,1.80
2022-10-02T02:48:45.371Z,2.47
2022-10-02T02:51:36.556Z,2.23
2022-10-02T02:54:28.980Z,2.20
2022-10-02T02:57:17.063Z,1.97
2022-10-02T03:00:04.968Z,2.00
2022-10-02T03:02:54.422Z,2.37
2022-10-02T03:05:44.525Z,2.30
2022-10-02T03:08:37.538Z,1.90
2022-10-02T03:11:46.181Z,2.35
2022-10-02T03:14:47.117Z,2.10
2022-10-02T03:17:32.160Z,2.17
2022-10-02T03:20:43.723Z,2.73
2022-10-02T03:23:45.524Z,2.50
2022-10-02T03:26:41.130Z,2.63
2022-10-02T03:29:40.636Z,2.67
2022-10-02T03:32:27.915Z,2.57
2022-10-02T03:35:15.137Z,2.70
2022-10-02T03:38:06.752Z,3.00
2022-10-02T03:40:58.021Z,2.77
2022-10-02T03:43:43.419Z,2.57
2022-10-02T03:46:28.736Z,2.53
2022-10-02T03:49:14.139Z,2.50
2022-10-02T03:51:59.541Z,2.70
2022-10-02T03:54:45.336Z,2.60
2022-10-02T03:57:33.907Z,2.77
2022-10-02T04:00:26.405Z,2.63
2022-10-02T04:03:19.769Z,2.63
2022-10-02T04:06:56.995Z,2.88
2022-10-02T04:09:45.077Z,2.60
2022-10-02T04:12:34.761Z,2.70
2022-10-02T04:15:28.787Z,2.53
2022-10-02T04:18:25.074Z,2.63
2022-10-02T04:21:19.742Z,2.10
2022-10-02T04:24:16.182Z,2.53
2022-10-02T04:27:21.626Z,2.13
2022-10-02T04:30:13.135Z,2.23
2022-10-02T04:33:11.011Z,2.50
2022-10-02T04:36:07.995Z,2.30
2022-10-02T04:39:07.367Z,2.13
2022-10-02T04:42:15.110Z,2.43
2022-10-02T04:45:16.448Z,2.50
2022-10-02T04:48:01.927Z,2.13
2022-10-02T04:51:18.124Z,2.30
2022-10-02T04:54:15.778Z,2.27
2022-10-02T04:57:27.537Z,2.27
2022-10-02T05:00:18.423Z,2.50
2022-10-02T05:03:13.007Z,2.80
2022-10-02T05:06:23.071Z,2.10
2022-10-02T05:09:32.695Z,2.30
2022-10-02T05:12:45.865Z,2.33
2022-10-02T05:15:59.298Z,2.35
2022-10-02T05:19:19.001Z,2.03
2022-10-02T05:22:16.449Z,2.40
2022-10-02T05:25:19.749Z,2.03
2022-10-02T05:28:30.600Z,2.40
2022-10-02T05:31:40.592Z,2.00
2022-10-02T05:34:47.286Z,2.00
2022-10-02T05:37:38.786Z,2.20
2022-10-02T05:40:31.555Z,2.10
2022-10-02T05:43:47.384Z,2.00
2022-10-02T05:46:43.930Z,2.23
2022-10-02T05:49:41.837Z,2.30
2022-10-02T05:52:35.180Z,2.00
2022-10-02T05:55:37.106Z,2.30
2022-10-02T05:59:18.812Z,2.00
2022-10-02T06:02:28.067Z,2.03
2022-10-02T06:05:35.385Z,2.23
2022-10-02T06:09:18.944Z,2.10
2022-10-02T06:15:33.322Z,1.80
2022-10-02T06:18:24.049Z,1.97
2022-10-02T06:21:36.293Z,1.60
2022-10-02T06:24:34.456Z,1.67
2022-10-02T06:27:41.447Z,1.90
2022-10-02T06:30:30.087Z,1.87
2022-10-02T06:33:19.114Z,1.93
2022-10-02T06:36:04.734Z,1.80
2022-10-02T06:39:27.729Z,1.50
2022-10-02T06:42:22.274Z,1.57
2022-10-02T06:45:24.713Z,2.20
2022-10-02T06:48:40.995Z,1.93
2022-10-02T06:51:45.247Z,1.43
2022-10-02T06:55:19.641Z,1.60
2022-10-02T07:01:25.225Z,1.93
2022-10-02T07:04:42.838Z,2.05
2022-10-02T07:07:34.778Z,2.23
2022-10-02T07:10:38.257Z,1.70
2022-10-02T07:13:53.550Z,1.75
2022-10-02T07:17:01.851Z,1.70
2022-10-02T07:20:29.837Z,1.63
2022-10-02T07:23:51.126Z,1.70
2022-10-02T07:27:21.574Z,1.70
2022-10-02T07:30:17.683Z,2.10
2022-10-02T07:33:06.145Z,1.77
2022-10-02T07:36:29.065Z,1.70
2022-10-02T07:39:26.657Z,1.70
2022-10-02T07:42:23.663Z,1.97
2022-10-02T07:45:34.394Z,1.73
2022-10-02T07:48:47.263Z,1.87
2022-10-02T07:51:50.391Z,1.50
2022-10-02T07:54:40.126Z,1.60
2022-10-02T07:57:56.462Z,1.70
2022-10-02T08:00:49.076Z,2.20
2022-10-02T08:04:07.263Z,1.95
2022-10-02T08:06:58.728Z,1.70
2022-10-02T08:09:49.264Z,1.93
2022-10-02T08:12:47.910Z,1.90
2022-10-02T08:15:38.599Z,2.17
2022-10-02T08:18:36.252Z,2.97
2022-10-02T08:21:24.486Z,2.50
2022-10-02T08:24:17.895Z,2.23
2022-10-02T08:27:11.258Z,2.17
2022-10-02T08:30:04.291Z,2.17
2022-10-02T08:32:50.060Z,2.20
2022-10-02T08:36:24.370Z,2.00
2022-10-02T08:39:21.985Z,1.98
2022-10-02T08:42:28.611Z,2.00
2022-10-02T08:45:36.002Z,2.37
2022-10-02T08:48:49.684Z,1.80
2022-10-02T08:52:02.710Z,1.90
2022-10-02T08:55:07.175Z,2.00
2022-10-02T08:57:58.970Z,2.33
2022-10-02T09:01:03.907Z,2.47
2022-10-02T09:04:09.217Z,2.63
2022-10-02T09:07:33.796Z,2.70
2022-10-02T09:10:50.841Z,2.90
2022-10-02T09:13:43.664Z,2.00
2022-10-02T09:17:06.332Z,2.33
2022-10-02T09:20:11.364Z,2.83
2022-10-02T09:23:21.912Z,2.43
2022-10-02T09:26:25.597Z,2.30
2022-10-02T09:29:42.271Z,2.70
2022-10-02T09:33:00.867Z,2.27
2022-10-02T09:36:14.568Z,2.83
2022-10-02T09:39:30.255Z,2.45
2022-10-02T09:42:54.170Z,2.77
2022-10-02T09:46:10.838Z,3.00
2022-10-02T09:49:32.133Z,2.80
2022-10-02T09:52:55.000Z,3.10
2022-10-02T09:55:52.709Z,2.83
2022-10-02T09:59:17.635Z,2.63
2022-10-02T10:02:25.823Z,2.37
2022-10-02T10:05:43.802Z,2.00
2022-10-02T10:08:44.071Z,2.27
2022-10-02T10:11:32.460Z,1.80
2022-10-02T10:14:33.903Z,2.37
2022-10-02T10:17:48.396Z,2.50
2022-10-02T10:21:11.518Z,2.23
2022-10-02T10:24:13.340Z,2.43
2022-10-02T10:27:17.182Z,2.40
2022-10-02T10:33:34.870Z,2.20
2022-10-02T10:37:07.851Z,2.35
2022-10-02T10:40:17.099Z,2.37
2022-10-02T10:43:13.287Z,2.67
2022-10-02T10:46:07.414Z,2.00
2022-10-02T10:49:18.410Z,2.70
2022-10-02T10:52:28.602Z,2.20
2022-10-02T10:55:36.222Z,2.10
2022-10-02T10:58:31.993Z,2.03
2022-10-02T11:01:23.875Z,1.70
2022-10-02T11:04:28.368Z,2.13
2022-10-02T11:07:42.587Z,2.03
2022-10-02T11:13:44.161Z,1.97
2022-10-02T11:16:49.354Z,2.33
2022-10-02T11:19:44.145Z,1.90
2022-10-02T11:22:55.023Z,1.97
2022-10-02T11:26:21.515Z,1.87
2022-10-02T11:29:34.787Z,2.17
2022-10-02T11:32:21.173Z,2.23
2022-10-02T11:35:19.362Z,1.97
2022-10-02T11:38:07.936Z,2.00
2022-10-02T11:41:20.961Z,2.10
2022-10-02T11:44:37.664Z,2.10
2022-10-02T11:47:38.253Z,2.33
2022-10-02T11:50:30.751Z,2.17
2022-10-02T11:53:35.634Z,2.50
2022-10-02T11:56:39.616Z,2.90
2022-10-02T11:59:34.300Z,3.57
2022-10-02T12:02:35.019Z,3.97
2022-10-02T12:05:54.973Z,4.53
2022-10-02T12:09:06.432Z,4.63
2022-10-02T12:12:22.504Z,4.73
2022-10-02T12:15:28.220Z,4.47
2022-10-02T12:18:32.861Z,4.17
2022-10-02T12:22:00.213Z,4.57
2022-10-02T12:25:28.215Z,4.20
2022-10-02T12:28:32.373Z,4.10
2022-10-02T12:31:32.277Z,3.50
2022-10-02T12:34:55.544Z,3.93
2022-10-02T12:38:19.794Z,4.53
2022-10-02T12:44:25.299Z,3.90
2022-10-02T12:47:29.268Z,4.50
2022-10-02T12:50:40.045Z,3.22
2022-10-02T12:53:49.899Z,3.70
2022-10-02T12:56:41.694Z,3.77
2022-10-02T13:00:01.614Z,4.10
2022-10-02T13:03:09.087Z,3.90
2022-10-02T13:06:30.108Z,4.10
2022-10-02T13:09:30.876Z,3.70
2022-10-02T13:12:24.788Z,3.23
2022-10-02T13:15:26.437Z,3.17
2022-10-02T13:18:43.516Z,3.80
2022-10-02T13:21:59.008Z,3.37
2022-10-02T13:25:01.477Z,3.07
2022-10-02T13:27:53.698Z,3.60
2022-10-02T13:31:11.618Z,3.50
2022-10-02T13:34:18.782Z,3.80
2022-10-02T13:37:04.807Z,3.60
2022-10-02T13:40:18.576Z,3.60
2022-10-02T13:46:04.327Z,3.37
2022-10-02T13:49:13.720Z,2.93
2022-10-02T13:52:26.512Z,3.40
2022-10-02T13:55:26.966Z,3.83
2022-10-02T13:58:23.617Z,3.47
2022-10-02T14:01:36.036Z,3.60
2022-10-02T14:04:46.176Z,3.67
2022-10-02T14:07:31.956Z,3.80
2022-10-02T14:10:24.067Z,3.67
2022-10-02T14:13:28.841Z,3.60
2022-10-02T14:16:32.596Z,3.50
2022-10-02T14:19:53.005Z,3.15
2022-10-02T14:23:16.236Z,3.83
2022-10-02T14:26:35.758Z,3.37
2022-10-02T14:29:38.608Z,3.50
2022-10-02T14:32:58.742Z,3.33
2022-10-02T14:35:47.381Z,3.03
2022-10-02T14:38:54.734Z,3.67
2022-10-02T14:41:59.127Z,3.83
2022-10-02T14:45:10.515Z,3.13
2022-10-02T14:48:09.919Z,3.63
2022-10-02T14:51:20.679Z,3.37
2022-10-02T14:54:20.822Z,3.07
2022-10-02T14:57:20.342Z,2.83
2022-10-02T15:00:15.225Z,2.77
2022-10-02T15:03:33.862Z,3.00
2022-10-02T15:06:31.599Z,2.77
2022-10-02T15:09:27.516Z,3.13
2022-10-02T15:12:19.641Z,3.17
2022-10-02T15:15:17.464Z,3.20
2022-10-02T15:18:42.221Z,3.00
2022-10-02T15:21:32.842Z,3.23
2022-10-02T15:24:34.121Z,4.07
2022-10-02T15:27:19.750Z,4.50
2022-10-02T15:30:19.707Z,3.77
2022-10-02T15:33:46.225Z,4.67
2022-10-02T15:36:50.711Z,4.77
2022-10-02T15:40:06.076Z,4.43
2022-10-02T15:42:58.651Z,4.13
2022-10-02T15:46:12.335Z,4.15
2022-10-02T15:49:27.142Z,3.70
2022-10-02T15:52:15.455Z,3.93
2022-10-02T15:55:10.985Z,4.10
2022-10-02T15:58:24.440Z,3.27
2022-10-02T16:01:12.857Z,3.97
2022-10-02T16:04:18.635Z,3.40
2022-10-02T16:07:38.036Z,3.33
2022-10-02T16:10:41.669Z,3.40
2022-10-02T16:16:52.916Z,3.43
2022-10-02T16:19:50.436Z,3.13
2022-10-02T16:23:01.221Z,3.37
2022-10-02T16:25:46.636Z,3.17
2022-10-02T16:28:48.772Z,3.83
2022-10-02T16:31:43.759Z,3.30
2022-10-02T16:34:57.077Z,3.10
2022-10-02T16:38:13.925Z,3.22
2022-10-02T16:41:15.540Z,3.90
2022-10-02T16:44:10.747Z,3.50
2022-10-02T16:47:28.565Z,3.37
2022-10-02T16:50:32.005Z,3.40
2022-10-02T16:53:29.893Z,3.10
2022-10-02T16:56:32.244Z,3.60
2022-10-02T16:59:24.083Z,3.70
2022-10-02T17:02:22.725Z,3.00
2022-10-02T17:05:11.096Z,3.13
2022-10-02T17:08:05.520Z,2.90
2022-10-02T17:11:23.286Z,3.00
2022-10-02T17:14:55.017Z,3.20
2022-10-02T17:17:43.106Z,3.03
2022-10-02T17:20:34.007Z,3.17
2022-10-02T17:23:25.380Z,2.60
2022-10-02T17:26:22.678Z,2.70
2022-10-02T17:29:13.416Z,3.20
2022-10-02T17:32:01.780Z,3.07
2022-10-02T17:34:50.489Z,3.10
2022-10-02T17:37:53.507Z,3.40
2022-10-02T17:40:46.104Z,3.17
2022-10-02T17:43:50.728Z,3.27
2022-10-02T17:46:42.374Z,3.20
2022-10-02T17:49:49.103Z,2.90
2022-10-02T17:53:02.856Z,3.40
2022-10-02T17:56:28.576Z,3.00
2022-10-02T17:59:30.705Z,3.00
2022-10-02T18:02:53.908Z,3.63
2022-10-02T18:05:46.512Z,3.90
2022-10-02T18:08:38.058Z,3.30
2022-10-02T18:11:46.016Z,2.80
2022-10-02T18:14:52.620Z,3.10
2022-10-02T18:17:51.630Z,3.37
2022-10-02T18:21:14.398Z,2.63
2022-10-02T18:24:09.757Z,2.80
2022-10-02T18:27:18.568Z,2.83
2022-10-02T18:30:20.788Z,2.97
2022-10-02T18:33:42.747Z,3.20
2022-10-02T18:36:56.374Z,2.83
2022-10-02T18:40:20.008Z,2.63
2022-10-02T18:43:12.189Z,2.67
2022-10-02T18:46:33.711Z,2.90
2022-10-02T18:49:39.962Z,2.63
2022-10-02T18:53:03.872Z,2.77
2022-10-02T18:56:09.350Z,2.63
2022-10-02T18:59:19.899Z,2.67
2022-10-02T19:02:27.278Z,2.20
2022-10-02T19:05:35.678Z,2.73
2022-10-02T19:08:50.487Z,2.20
2022-10-02T19:11:47.754Z,2.37
2022-10-02T19:14:42.330Z,2.57
2022-10-02T19:17:30.871Z,2.33
2022-10-02T19:20:34.756Z,2.23
2022-10-02T19:23:38.784Z,2.00
2022-10-02T19:26:40.658Z,2.53
2022-10-02T19:29:57.974Z,2.20
2022-10-02T19:32:43.392Z,1.93
2022-10-02T19:35:40.679Z,1.67
2022-10-02T19:38:39.411Z,2.37
2022-10-02T19:41:25.671Z,1.90
2022-10-02T19:44:25.632Z,2.00
2022-10-02T19:47:45.798Z,1.90
2022-10-02T19:50:49.161Z,1.50
2022-10-02T19:53:45.186Z,1.90
2022-10-02T19:56:41.168Z,2.00
2022-10-02T19:59:41.920Z,1.93
2022-10-02T20:02:38.748Z,1.60
2022-10-02T20:05:31.541Z,1.87
2022-10-02T20:08:20.005Z,1.73
2022-10-02T20:11:14.926Z,1.97
2022-10-02T20:14:10.591Z,1.97
2022-10-02T20:17:11.127Z,2.03
2022-10-02T20:20:01.567Z,1.90
2022-10-02T20:23:01.787Z,1.87
2022-10-02T20:25:58.446Z,1.87
2022-10-02T20:29:10.031Z,1.50
2022-10-02T20:32:02.154Z,2.00
2022-10-02T20:34:53.665Z,1.97
2022-10-02T20:37:40.818Z,1.80
2022-10-02T20:40:30.324Z,1.83
2022-10-02T20:43:34.374Z,2.20
2022-10-02T20:46:32.050Z,2.00
2022-10-02T20:49:55.386Z,1.73
2022-10-02T20:52:56.039Z,1.67
2022-10-02T20:55:45.945Z,1.80
2022-10-02T20:59:03.638Z,1.70
2022-10-02T21:02:19.817Z,1.50
2022-10-02T21:05:07.979Z,1.80
2022-10-02T21:08:18.745Z,1.83
2022-10-02T21:11:13.475Z,1.70
2022-10-02T21:14:09.384Z,1.90
2022-10-02T21:17:13.816Z,1.77
2022-10-02T21:20:08.275Z,1.80
2022-10-02T21:23:15.093Z,1.70
2022-10-02T21:26:38.297Z,1.60
2022-10-02T21:29:44.001Z,1.87
2022-10-02T21:32:38.506Z,1.80
2022-10-02T21:35:54.503Z,1.80
2022-10-02T21:38:50.931Z,1.87
2022-10-02T21:42:00.739Z,1.70
2022-10-02T21:45:29.870Z,1.80
2022-10-02T21:49:01.615Z,1.80
2022-10-02T21:52:23.854Z,1.60
2022-10-02T21:55:41.353Z,1.70
2022-10-02T21:58:36.016Z,1.60
2022-10-02T22:01:38.809Z,1.47
2022-10-02T22:04:53.589Z,1.60
2022-10-02T22:08:14.746Z,1.67
2022-10-02T22:11:42.006Z,1.60
2022-10-02T22:14:46.910Z,1.60
2022-10-02T22:18:25.165Z,1.43
2022-10-02T22:21:20.174Z,1.57
2022-10-02T22:24:24.016Z,1.53
2022-10-02T22:27:21.756Z,1.50
2022-10-02T22:30:23.175Z,1.40
2022-10-02T22:33:13.960Z,1.60
2022-10-02T22:36:34.955Z,1.50
2022-10-02T22:39:57.723Z,1.83
2022-10-02T22:42:52.027Z,1.70
2022-10-02T22:45:48.502Z,1.43
2022-10-02T22:49:01.050Z,1.53
2022-10-02T22:51:54.158Z,1.40
2022-10-02T22:55:05.476Z,1.63
2022-10-02T22:58:02.527Z,1.53
2022-10-02T23:01:00.008Z,1.53
2022-10-02T23:03:58.665Z,1.40
2022-10-02T23:07:12.582Z,1.50
2022-10-02T23:10:03.524Z,1.50
2022-10-02T23:13:03.969Z,1.53
2022-10-02T23:16:06.068Z,1.60
2022-10-02T23:18:54.362Z,1.40
2022-10-02T23:21:47.967Z,1.80
2022-10-02T23:24:43.557Z,1.53
2022-10-02T23:27:46.184Z,1.27
2022-10-02T23:30:36.369Z,1.30
2022-10-02T23:33:41.086Z,1.37
2022-10-02T23:36:37.001Z,1.40
2022-10-02T23:39:49.422Z,1.30
2022-10-02T23:42:59.097Z,1.50
2022-10-02T23:45:51.809Z,1.50
2022-10-02T23:48:38.614Z,1.70
2022-10-02T23:51:41.135Z,1.40
2022-10-02T23:54:44.645Z,1.45
2022-10-02T23:57:33.124Z,1.23
